Terminal Aerodrome Forecast
Issued by NWS Mt. Holly, NJ

Home | Current Version | Previous Version | Text Only | Print | Product List | Glossary On
Versions: 1 2 3 4 5 6 7 8 9 10 11 12 13 14 15 16 17 18 19 20 21 22 23 24 25 26 27 28
891
FTUS41 KPHI 032326
TAFPHL
TAF
KPHL 032326Z 0400/0506 30010KT P6SM BKN050
     FM040200 30007KT P6SM BKN050
     FM041400 33008KT P6SM SCT050
     FM042100 VRB03KT P6SM OVC150
     FM050300 VRB05KT P6SM OVC070=

USA.gov is the U.S. government's official web portal to all federal, state and local government web resources and services.